Borden Springs, Alabama
Current Conditions -  °F | °C
As of 8:53 PM on Sunday 21 Dec 2014 (Local Time) from KANB Reporting Station
Overcast Overcast  
Wind Chill: 50°   Ceiling: 1500
Heat Index: 50°   Visibility: 10mi
Dew Point: 45°   Wind: 6mph
Humidity: 83%   Direction: 80°E
Pressure: 30.08"   Gusts: NA
Location:  33.8638°N, 85.6035°W
Report Text: KANB 220253Z AUTO 08005KT 10SM OVC015 10/07 A3008 RMK AO2 SLP189 T01000072 57001
Loading
Personal Weather Stations






























Interactive Weather Map New forecast layout! Learn more

10-Day Weather Forecast

Advertisements
Track Severe Weather on mobile